Flugplatz Schweinfurt AHP (ETOA)

Hier findest Du alle Informationen zum Flugplatz Schweinfurt AHP (ETOA).

Informationen für Piloten zum Flugplatz Schweinfurt AHP

Hier findest Du alle relevanten Informationen, die Du als Pilot benötigst, um Schweinfurt AHP anzufliegen.

Flugplatz: Schweinfurt AHP ICAO-Code: ETOA
Frequenz Turm: - GAFOR Gebiet: -
Frequenz Ground: - Mogas: nein
Platzrunde: - Landegebühr: -
Platzhöhe: Sunrise: 03:08 Uhr UTC
Pisten: Sunset: 19:28 Uhr UTC

Flugwetter am Flugplatz Schweinfurt AHP

Die METAR Information stammen aus EDDN (89.30 km entfernt).

METAR Code:
2023/05/26 09:20
EDDN 260920Z AUTO 34009KT 300V040 9999 FEW041 20/09 Q1025 NOSIG

Flugschulen am Flugplatz Schweinfurt AHP

Am Flugplatz Schweinfurt AHP gibt es leider keine Flugschule.

Benachbarte Flugplätze und Flugschulen

Es gibt 20 weitere Flugplätze in einem Umkreis von 50 km um den Flugplatz Schweinfurt AHP.

Jetzt anmelden

Passwort vergessen

Umfrage Archiv

Sendet Ihr ADS-B und/oder FLARM?

Ja
83 %
Nein
17 %
Stimmen: 358 | Diskussion
Anzeige: Roland Aircraft
Statistik Alle Mitglieder

Aktuell sind 49 Besucher online, davon 2 Mitglieder und 47 Gäste.


Mitglieder online:
Nordex  majo 

Anzeige: EasyVFR